sensor_id;sensor_type;location;lat;lon;timestamp;temperature;humidity
2497;DHT22;1259;48.306;14.374;2022-07-10T00:00:08;15.90;99.90
2497;DHT22;1259;48.306;14.374;2022-07-10T00:02:36;15.90;99.90
2497;DHT22;1259;48.306;14.374;2022-07-10T00:05:03;15.90;99.90
2497;DHT22;1259;48.306;14.374;2022-07-10T00:07:31;16.00;99.90
2497;DHT22;1259;48.306;14.374;2022-07-10T00:09:59;15.90;99.90
2497;DHT22;1259;48.306;14.374;2022-07-10T00:12:26;15.90;99.90
2497;DHT22;1259;48.306;14.374;2022-07-10T00:14:53;15.90;99.90
2497;DHT22;1259;48.306;14.374;2022-07-10T00:17:20;15.90;99.90
2497;DHT22;1259;48.306;14.374;2022-07-10T00:19:47;15.90;99.90
2497;DHT22;1259;48.306;14.374;2022-07-10T00:22:14;15.90;99.90
2497;DHT22;1259;48.306;14.374;2022-07-10T00:24:41;15.90;99.90
2497;DHT22;1259;48.306;14.374;2022-07-10T00:27:10;16.00;99.90
2497;DHT22;1259;48.306;14.374;2022-07-10T00:29:37;16.00;99.90
2497;DHT22;1259;48.306;14.374;2022-07-10T00:32:05;16.00;99.90
2497;DHT22;1259;48.306;14.374;2022-07-10T00:34:32;16.00;99.90
2497;DHT22;1259;48.306;14.374;2022-07-10T00:36:59;15.90;99.90
2497;DHT22;1259;48.306;14.374;2022-07-10T00:39:26;15.90;99.90
2497;DHT22;1259;48.306;14.374;2022-07-10T00:41:53;16.00;99.90
2497;DHT22;1259;48.306;14.374;2022-07-10T00:44:21;16.00;99.90
2497;DHT22;1259;48.306;14.374;2022-07-10T00:46:48;16.10;99.90
2497;DHT22;1259;48.306;14.374;2022-07-10T00:49:15;16.10;99.90
2497;DHT22;1259;48.306;14.374;2022-07-10T00:51:43;16.20;99.90
2497;DHT22;1259;48.306;14.374;2022-07-10T00:54:10;16.10;99.90
2497;DHT22;1259;48.306;14.374;2022-07-10T00:56:37;16.10;99.90
2497;DHT22;1259;48.306;14.374;2022-07-10T00:59:04;16.10;99.90
2497;DHT22;1259;48.306;14.374;2022-07-10T01:01:34;16.00;99.90
2497;DHT22;1259;48.306;14.374;2022-07-10T01:04:02;16.00;99.90
2497;DHT22;1259;48.306;14.374;2022-07-10T01:06:29;16.00;99.90
2497;DHT22;1259;48.306;14.374;2022-07-10T01:08:56;15.90;99.90
2497;DHT22;1259;48.306;14.374;2022-07-10T01:11:23;15.90;99.90
2497;DHT22;1259;48.306;14.374;2022-07-10T01:13:50;15.90;99.90
2497;DHT22;1259;48.306;14.374;2022-07-10T01:16:17;15.90;99.90
2497;DHT22;1259;48.306;14.374;2022-07-10T01:18:45;15.90;99.90
2497;DHT22;1259;48.306;14.374;2022-07-10T01:21:27;15.80;99.90
2497;DHT22;1259;48.306;14.374;2022-07-10T01:23:54;15.80;99.90
2497;DHT22;1259;48.306;14.374;2022-07-10T01:26:21;15.80;99.90
2497;DHT22;1259;48.306;14.374;2022-07-10T01:28:50;15.70;99.90
2497;DHT22;1259;48.306;14.374;2022-07-10T01:31:17;15.80;99.90
2497;DHT22;1259;48.306;14.374;2022-07-10T01:33:44;15.80;99.90
2497;DHT22;1259;48.306;14.374;2022-07-10T01:36:12;15.80;99.90
2497;DHT22;1259;48.306;14.374;2022-07-10T01:38:40;15.80;99.90
2497;DHT22;1259;48.306;14.374;2022-07-10T01:41:07;15.70;99.90
2497;DHT22;1259;48.306;14.374;2022-07-10T01:43:35;15.80;99.90
2497;DHT22;1259;48.306;14.374;2022-07-10T01:46:02;15.80;99.90
2497;DHT22;1259;48.306;14.374;2022-07-10T01:48:30;15.80;99.90
2497;DHT22;1259;48.306;14.374;2022-07-10T01:50:57;15.70;99.90
2497;DHT22;1259;48.306;14.374;2022-07-10T01:53:24;15.80;99.90
2497;DHT22;1259;48.306;14.374;2022-07-10T01:55:52;15.80;99.90
2497;DHT22;1259;48.306;14.374;2022-07-10T01:58:20;15.80;99.90
2497;DHT22;1259;48.306;14.374;2022-07-10T02:00:47;15.80;99.90
2497;DHT22;1259;48.306;14.374;2022-07-10T02:03:14;15.70;99.90
2497;DHT22;1259;48.306;14.374;2022-07-10T02:05:58;15.70;99.90
2497;DHT22;1259;48.306;14.374;2022-07-10T02:08:25;15.70;99.90
2497;DHT22;1259;48.306;14.374;2022-07-10T02:10:54;15.70;99.90
2497;DHT22;1259;48.306;14.374;2022-07-10T02:13:21;15.70;99.90
2497;DHT22;1259;48.306;14.374;2022-07-10T02:15:50;15.70;99.90
2497;DHT22;1259;48.306;14.374;2022-07-10T02:18:17;15.70;99.90
2497;DHT22;1259;48.306;14.374;2022-07-10T02:20:44;15.80;99.90
2497;DHT22;1259;48.306;14.374;2022-07-10T02:23:11;15.90;99.90
2497;DHT22;1259;48.306;14.374;2022-07-10T02:25:38;15.90;99.90
2497;DHT22;1259;48.306;14.374;2022-07-10T02:28:08;15.90;99.90
2497;DHT22;1259;48.306;14.374;2022-07-10T02:30:35;15.90;99.90
2497;DHT22;1259;48.306;14.374;2022-07-10T02:33:02;15.90;99.90
2497;DHT22;1259;48.306;14.374;2022-07-10T02:35:29;15.90;99.90
2497;DHT22;1259;48.306;14.374;2022-07-10T02:37:56;15.90;99.90
2497;DHT22;1259;48.306;14.374;2022-07-10T02:40:23;15.90;99.90
2497;DHT22;1259;48.306;14.374;2022-07-10T02:42:50;15.80;99.90
2497;DHT22;1259;48.306;14.374;2022-07-10T02:45:19;15.80;99.90
2497;DHT22;1259;48.306;14.374;2022-07-10T02:47:46;15.80;99.90
2497;DHT22;1259;48.306;14.374;2022-07-10T02:50:13;15.70;99.90
2497;DHT22;1259;48.306;14.374;2022-07-10T02:52:40;15.70;99.90
2497;DHT22;1259;48.306;14.374;2022-07-10T02:55:08;15.80;99.90
2497;DHT22;1259;48.306;14.374;2022-07-10T02:57:35;15.80;99.90
2497;DHT22;1259;48.306;14.374;2022-07-10T03:00:03;15.80;99.90
2497;DHT22;1259;48.306;14.374;2022-07-10T03:02:31;15.80;99.90
2497;DHT22;1259;48.306;14.374;2022-07-10T03:04:58;15.80;99.90
2497;DHT22;1259;48.306;14.374;2022-07-10T03:07:25;15.80;99.90
2497;DHT22;1259;48.306;14.374;2022-07-10T03:09:52;15.80;99.90
2497;DHT22;1259;48.306;14.374;2022-07-10T03:12:19;15.80;99.90
2497;DHT22;1259;48.306;14.374;2022-07-10T03:14:46;15.80;99.90
2497;DHT22;1259;48.306;14.374;2022-07-10T03:17:13;15.80;99.90
2497;DHT22;1259;48.306;14.374;2022-07-10T03:19:41;15.90;99.90
2497;DHT22;1259;48.306;14.374;2022-07-10T03:22:08;15.90;99.90
2497;DHT22;1259;48.306;14.374;2022-07-10T03:24:35;15.90;99.90
2497;DHT22;1259;48.306;14.374;2022-07-10T03:27:03;15.90;99.90
2497;DHT22;1259;48.306;14.374;2022-07-10T03:29:30;15.90;99.90
2497;DHT22;1259;48.306;14.374;2022-07-10T03:31:57;15.90;99.90
2497;DHT22;1259;48.306;14.374;2022-07-10T03:34:25;15.90;99.90
2497;DHT22;1259;48.306;14.374;2022-07-10T03:36:53;15.90;99.90
2497;DHT22;1259;48.306;14.374;2022-07-10T03:39:20;15.90;99.90
2497;DHT22;1259;48.306;14.374;2022-07-10T03:41:47;15.90;99.90
2497;DHT22;1259;48.306;14.374;2022-07-10T03:44:14;15.90;99.90
2497;DHT22;1259;48.306;14.374;2022-07-10T03:46:41;15.90;99.90
2497;DHT22;1259;48.306;14.374;2022-07-10T03:49:08;15.90;99.90
2497;DHT22;1259;48.306;14.374;2022-07-10T03:51:35;15.90;99.90
2497;DHT22;1259;48.306;14.374;2022-07-10T03:54:03;15.90;99.90
2497;DHT22;1259;48.306;14.374;2022-07-10T03:56:30;15.90;99.90
2497;DHT22;1259;48.306;14.374;2022-07-10T03:59:15;15.90;99.90
2497;DHT22;1259;48.306;14.374;2022-07-10T04:01:42;15.90;99.90
2497;DHT22;1259;48.306;14.374;2022-07-10T04:04:09;15.90;99.90
2497;DHT22;1259;48.306;14.374;2022-07-10T04:06:36;15.90;99.90
2497;DHT22;1259;48.306;14.374;2022-07-10T04:09:05;16.00;99.90
2497;DHT22;1259;48.306;14.374;2022-07-10T04:11:32;16.00;99.90
2497;DHT22;1259;48.306;14.374;2022-07-10T04:13:59;16.00;99.90
2497;DHT22;1259;48.306;14.374;2022-07-10T04:16:26;15.90;99.90
2497;DHT22;1259;48.306;14.374;2022-07-10T04:18:53;15.90;99.90
2497;DHT22;1259;48.306;14.374;2022-07-10T04:21:20;15.90;99.90
2497;DHT22;1259;48.306;14.374;2022-07-10T04:23:47;15.90;99.90
2497;DHT22;1259;48.306;14.374;2022-07-10T04:26:15;16.00;99.90
2497;DHT22;1259;48.306;14.374;2022-07-10T04:28:42;16.00;99.90
2497;DHT22;1259;48.306;14.374;2022-07-10T04:31:09;16.10;99.90
2497;DHT22;1259;48.306;14.374;2022-07-10T04:33:36;16.10;99.90
2497;DHT22;1259;48.306;14.374;2022-07-10T04:36:04;16.10;99.90
2497;DHT22;1259;48.306;14.374;2022-07-10T04:38:31;16.10;99.90
2497;DHT22;1259;48.306;14.374;2022-07-10T04:40:58;16.10;99.90
2497;DHT22;1259;48.306;14.374;2022-07-10T04:43:26;16.10;99.90
2497;DHT22;1259;48.306;14.374;2022-07-10T04:45:53;16.10;99.90
2497;DHT22;1259;48.306;14.374;2022-07-10T04:48:20;16.10;99.90
2497;DHT22;1259;48.306;14.374;2022-07-10T04:50:47;16.10;99.90
2497;DHT22;1259;48.306;14.374;2022-07-10T04:53:14;16.20;99.90
2497;DHT22;1259;48.306;14.374;2022-07-10T04:55:41;16.20;99.90
2497;DHT22;1259;48.306;14.374;2022-07-10T04:58:08;16.20;99.90
2497;DHT22;1259;48.306;14.374;2022-07-10T05:00:36;16.20;99.90
2497;DHT22;1259;48.306;14.374;2022-07-10T05:03:03;16.20;99.90
2497;DHT22;1259;48.306;14.374;2022-07-10T05:05:30;16.20;99.90
2497;DHT22;1259;48.306;14.374;2022-07-10T05:07:57;16.30;99.90
2497;DHT22;1259;48.306;14.374;2022-07-10T05:10:24;16.30;99.90
2497;DHT22;1259;48.306;14.374;2022-07-10T05:12:52;16.40;99.90
2497;DHT22;1259;48.306;14.374;2022-07-10T05:15:19;16.40;99.90
2497;DHT22;1259;48.306;14.374;2022-07-10T05:17:48;16.50;99.90
2497;DHT22;1259;48.306;14.374;2022-07-10T05:20:15;16.50;99.90
2497;DHT22;1259;48.306;14.374;2022-07-10T05:22:42;16.60;99.90
2497;DHT22;1259;48.306;14.374;2022-07-10T05:25:09;16.60;99.90
2497;DHT22;1259;48.306;14.374;2022-07-10T05:27:36;16.70;99.90
2497;DHT22;1259;48.306;14.374;2022-07-10T05:30:03;16.70;99.90
2497;DHT22;1259;48.306;14.374;2022-07-10T05:32:30;16.80;99.90
2497;DHT22;1259;48.306;14.374;2022-07-10T05:34:59;16.80;99.90
2497;DHT22;1259;48.306;14.374;2022-07-10T05:37:26;16.80;99.90
2497;DHT22;1259;48.306;14.374;2022-07-10T05:39:53;16.80;99.90
2497;DHT22;1259;48.306;14.374;2022-07-10T05:42:20;16.90;99.90
2497;DHT22;1259;48.306;14.374;2022-07-10T05:44:47;17.10;99.90
2497;DHT22;1259;48.306;14.374;2022-07-10T05:47:14;17.10;99.90
2497;DHT22;1259;48.306;14.374;2022-07-10T05:49:41;17.20;99.90
2497;DHT22;1259;48.306;14.374;2022-07-10T05:52:09;17.20;99.90
2497;DHT22;1259;48.306;14.374;2022-07-10T05:54:37;17.30;99.90
2497;DHT22;1259;48.306;14.374;2022-07-10T05:57:04;17.40;99.90
2497;DHT22;1259;48.306;14.374;2022-07-10T05:59:33;17.50;99.90
2497;DHT22;1259;48.306;14.374;2022-07-10T06:02:00;17.50;99.90
2497;DHT22;1259;48.306;14.374;2022-07-10T06:04:27;17.60;99.90
2497;DHT22;1259;48.306;14.374;2022-07-10T06:06:54;17.70;99.90
2497;DHT22;1259;48.306;14.374;2022-07-10T06:09:23;17.70;99.90
2497;DHT22;1259;48.306;14.374;2022-07-10T06:11:50;17.80;99.90
2497;DHT22;1259;48.306;14.374;2022-07-10T06:14:17;17.80;99.90
2497;DHT22;1259;48.306;14.374;2022-07-10T06:16:43;17.80;99.90
2497;DHT22;1259;48.306;14.374;2022-07-10T06:19:10;17.70;99.90
2497;DHT22;1259;48.306;14.374;2022-07-10T06:21:38;17.60;99.90
2497;DHT22;1259;48.306;14.374;2022-07-10T06:24:05;17.50;99.90
2497;DHT22;1259;48.306;14.374;2022-07-10T06:26:33;17.50;99.90
2497;DHT22;1259;48.306;14.374;2022-07-10T06:29:00;17.50;99.90
2497;DHT22;1259;48.306;14.374;2022-07-10T06:31:27;17.70;99.90
2497;DHT22;1259;48.306;14.374;2022-07-10T06:33:54;17.70;99.90
2497;DHT22;1259;48.306;14.374;2022-07-10T06:36:21;17.80;99.90
2497;DHT22;1259;48.306;14.374;2022-07-10T06:38:48;17.90;99.90
2497;DHT22;1259;48.306;14.374;2022-07-10T06:41:15;17.90;99.90
2497;DHT22;1259;48.306;14.374;2022-07-10T06:43:44;17.90;99.90
2497;DHT22;1259;48.306;14.374;2022-07-10T06:46:11;17.90;99.90
2497;DHT22;1259;48.306;14.374;2022-07-10T06:48:37;17.90;99.90
2497;DHT22;1259;48.306;14.374;2022-07-10T06:51:05;17.90;99.90
2497;DHT22;1259;48.306;14.374;2022-07-10T06:53:33;17.80;99.90
2497;DHT22;1259;48.306;14.374;2022-07-10T06:56:00;17.90;99.90
2497;DHT22;1259;48.306;14.374;2022-07-10T06:58:27;17.80;99.90
2497;DHT22;1259;48.306;14.374;2022-07-10T07:00:56;17.90;99.90
2497;DHT22;1259;48.306;14.374;2022-07-10T07:03:24;18.00;99.90
2497;DHT22;1259;48.306;14.374;2022-07-10T07:05:51;18.10;99.90
2497;DHT22;1259;48.306;14.374;2022-07-10T07:08:18;18.10;99.90
2497;DHT22;1259;48.306;14.374;2022-07-10T07:10:45;18.00;99.90
2497;DHT22;1259;48.306;14.374;2022-07-10T07:13:12;18.00;99.90
2497;DHT22;1259;48.306;14.374;2022-07-10T07:15:39;18.10;99.90
2497;DHT22;1259;48.306;14.374;2022-07-10T07:18:09;18.20;99.90
2497;DHT22;1259;48.306;14.374;2022-07-10T07:20:38;18.00;99.90
2497;DHT22;1259;48.306;14.374;2022-07-10T07:23:23;18.00;99.90
2497;DHT22;1259;48.306;14.374;2022-07-10T07:25:50;18.00;99.90
2497;DHT22;1259;48.306;14.374;2022-07-10T07:28:18;17.90;99.90
2497;DHT22;1259;48.306;14.374;2022-07-10T07:30:46;17.90;99.90
2497;DHT22;1259;48.306;14.374;2022-07-10T07:33:15;18.00;99.90
2497;DHT22;1259;48.306;14.374;2022-07-10T07:35:42;18.00;99.90
2497;DHT22;1259;48.306;14.374;2022-07-10T07:38:09;18.10;99.90
2497;DHT22;1259;48.306;14.374;2022-07-10T07:40:36;18.00;99.90
2497;DHT22;1259;48.306;14.374;2022-07-10T07:43:04;18.10;99.90
2497;DHT22;1259;48.306;14.374;2022-07-10T07:45:31;18.20;99.90
2497;DHT22;1259;48.306;14.374;2022-07-10T07:47:58;18.40;99.90
2497;DHT22;1259;48.306;14.374;2022-07-10T07:50:31;18.50;99.90
2497;DHT22;1259;48.306;14.374;2022-07-10T07:52:59;18.40;99.90
2497;DHT22;1259;48.306;14.374;2022-07-10T07:55:27;18.30;99.90
2497;DHT22;1259;48.306;14.374;2022-07-10T07:57:56;18.40;99.90
2497;DHT22;1259;48.306;14.374;2022-07-10T08:00:24;18.50;99.90
2497;DHT22;1259;48.306;14.374;2022-07-10T08:02:52;18.20;99.90
2497;DHT22;1259;48.306;14.374;2022-07-10T08:05:20;18.40;99.90
2497;DHT22;1259;48.306;14.374;2022-07-10T08:07:52;18.50;99.90
2497;DHT22;1259;48.306;14.374;2022-07-10T08:10:21;18.50;99.90
2497;DHT22;1259;48.306;14.374;2022-07-10T08:12:49;18.70;99.90
2497;DHT22;1259;48.306;14.374;2022-07-10T08:15:18;18.80;99.90
2497;DHT22;1259;48.306;14.374;2022-07-10T08:17:48;18.90;99.90
2497;DHT22;1259;48.306;14.374;2022-07-10T08:20:15;18.90;99.90
2497;DHT22;1259;48.306;14.374;2022-07-10T08:22:43;18.90;99.90
2497;DHT22;1259;48.306;14.374;2022-07-10T08:25:12;18.80;99.90
2497;DHT22;1259;48.306;14.374;2022-07-10T08:27:39;18.80;99.90
2497;DHT22;1259;48.306;14.374;2022-07-10T08:30:08;18.60;99.90
2497;DHT22;1259;48.306;14.374;2022-07-10T08:32:36;18.50;99.90
2497;DHT22;1259;48.306;14.374;2022-07-10T08:35:03;18.70;99.90
2497;DHT22;1259;48.306;14.374;2022-07-10T08:37:37;18.80;99.90
2497;DHT22;1259;48.306;14.374;2022-07-10T08:40:05;18.60;99.90
2497;DHT22;1259;48.306;14.374;2022-07-10T08:42:34;18.60;99.90
2497;DHT22;1259;48.306;14.374;2022-07-10T08:45:02;17.10;99.90
2497;DHT22;1259;48.306;14.374;2022-07-10T08:47:29;16.20;99.90
2497;DHT22;1259;48.306;14.374;2022-07-10T08:49:57;16.30;99.90
2497;DHT22;1259;48.306;14.374;2022-07-10T08:52:29;15.80;99.90
2497;DHT22;1259;48.306;14.374;2022-07-10T08:54:59;15.60;99.90
2497;DHT22;1259;48.306;14.374;2022-07-10T08:57:26;15.30;99.90
2497;DHT22;1259;48.306;14.374;2022-07-10T08:59:56;15.50;99.90
2497;DHT22;1259;48.306;14.374;2022-07-10T09:02:23;15.70;99.90
2497;DHT22;1259;48.306;14.374;2022-07-10T09:04:50;15.40;99.90
2497;DHT22;1259;48.306;14.374;2022-07-10T09:07:17;15.60;99.90
2497;DHT22;1259;48.306;14.374;2022-07-10T09:09:54;15.50;99.90
2497;DHT22;1259;48.306;14.374;2022-07-10T09:12:22;15.40;99.90
2497;DHT22;1259;48.306;14.374;2022-07-10T09:14:49;15.40;99.90
2497;DHT22;1259;48.306;14.374;2022-07-10T09:17:18;15.70;99.90
2497;DHT22;1259;48.306;14.374;2022-07-10T09:19:45;15.60;99.90
2497;DHT22;1259;48.306;14.374;2022-07-10T09:22:13;15.90;99.90
2497;DHT22;1259;48.306;14.374;2022-07-10T09:24:42;15.90;99.90
2497;DHT22;1259;48.306;14.374;2022-07-10T09:27:11;15.80;99.90
2497;DHT22;1259;48.306;14.374;2022-07-10T09:29:45;15.90;99.90
2497;DHT22;1259;48.306;14.374;2022-07-10T09:32:13;15.60;99.90
2497;DHT22;1259;48.306;14.374;2022-07-10T09:34:43;15.50;99.90
2497;DHT22;1259;48.306;14.374;2022-07-10T09:37:24;15.50;99.90
2497;DHT22;1259;48.306;14.374;2022-07-10T09:39:57;15.40;99.90
2497;DHT22;1259;48.306;14.374;2022-07-10T09:42:29;15.10;99.90
2497;DHT22;1259;48.306;14.374;2022-07-10T09:45:17;15.10;99.90
2497;DHT22;1259;48.306;14.374;2022-07-10T09:47:44;15.20;99.90
2497;DHT22;1259;48.306;14.374;2022-07-10T09:50:23;15.20;99.90
2497;DHT22;1259;48.306;14.374;2022-07-10T09:52:52;15.40;99.90
2497;DHT22;1259;48.306;14.374;2022-07-10T09:55:21;15.80;99.90
2497;DHT22;1259;48.306;14.374;2022-07-10T09:57:56;16.20;99.90
2497;DHT22;1259;48.306;14.374;2022-07-10T10:00:24;16.40;99.90
2497;DHT22;1259;48.306;14.374;2022-07-10T10:02:57;17.10;99.90
2497;DHT22;1259;48.306;14.374;2022-07-10T10:05:34;17.40;99.90
2497;DHT22;1259;48.306;14.374;2022-07-10T10:08:09;17.60;99.90
2497;DHT22;1259;48.306;14.374;2022-07-10T10:10:42;17.90;99.90
2497;DHT22;1259;48.306;14.374;2022-07-10T10:13:11;18.10;99.90
2497;DHT22;1259;48.306;14.374;2022-07-10T10:15:38;18.40;99.90
2497;DHT22;1259;48.306;14.374;2022-07-10T10:18:06;18.70;99.90
2497;DHT22;1259;48.306;14.374;2022-07-10T10:20:34;18.50;99.90
2497;DHT22;1259;48.306;14.374;2022-07-10T10:23:10;18.60;99.90
2497;DHT22;1259;48.306;14.374;2022-07-10T10:25:38;18.40;99.90
2497;DHT22;1259;48.306;14.374;2022-07-10T10:28:06;18.20;99.90
2497;DHT22;1259;48.306;14.374;2022-07-10T10:30:36;18.40;99.90
2497;DHT22;1259;48.306;14.374;2022-07-10T10:36:03;18.70;99.90
2497;DHT22;1259;48.306;14.374;2022-07-10T10:39:00;19.00;99.90
2497;DHT22;1259;48.306;14.374;2022-07-10T10:41:28;19.40;99.90
2497;DHT22;1259;48.306;14.374;2022-07-10T10:44:25;19.80;99.90
2497;DHT22;1259;48.306;14.374;2022-07-10T10:47:05;19.90;99.90
2497;DHT22;1259;48.306;14.374;2022-07-10T10:49:53;19.90;99.90
2497;DHT22;1259;48.306;14.374;2022-07-10T10:52:23;20.20;99.90
2497;DHT22;1259;48.306;14.374;2022-07-10T10:55:04;20.40;99.90
2497;DHT22;1259;48.306;14.374;2022-07-10T10:57:42;20.30;99.90
2497;DHT22;1259;48.306;14.374;2022-07-10T11:03:19;20.00;99.90
2497;DHT22;1259;48.306;14.374;2022-07-10T11:05:47;20.20;99.90
2497;DHT22;1259;48.306;14.374;2022-07-10T11:08:36;20.50;99.90
2497;DHT22;1259;48.306;14.374;2022-07-10T11:14:04;20.80;99.90
2497;DHT22;1259;48.306;14.374;2022-07-10T11:16:31;20.60;99.90
2497;DHT22;1259;48.306;14.374;2022-07-10T11:19:01;20.50;99.90
2497;DHT22;1259;48.306;14.374;2022-07-10T11:21:29;20.60;99.90
2497;DHT22;1259;48.306;14.374;2022-07-10T11:24:12;20.60;99.90
2497;DHT22;1259;48.306;14.374;2022-07-10T11:26:52;20.40;99.90
2497;DHT22;1259;48.306;14.374;2022-07-10T11:29:21;20.30;99.90
2497;DHT22;1259;48.306;14.374;2022-07-10T11:31:52;20.30;99.90
2497;DHT22;1259;48.306;14.374;2022-07-10T11:34:20;20.40;99.90
2497;DHT22;1259;48.306;14.374;2022-07-10T11:36:48;20.30;99.90
2497;DHT22;1259;48.306;14.374;2022-07-10T11:39:16;20.30;99.50
2497;DHT22;1259;48.306;14.374;2022-07-10T11:41:44;20.30;98.60
2497;DHT22;1259;48.306;14.374;2022-07-10T11:44:14;20.20;98.90
2497;DHT22;1259;48.306;14.374;2022-07-10T11:46:41;20.10;98.20
2497;DHT22;1259;48.306;14.374;2022-07-10T11:49:10;20.10;98.80
2497;DHT22;1259;48.306;14.374;2022-07-10T11:51:41;20.10;99.90
2497;DHT22;1259;48.306;14.374;2022-07-10T11:54:09;19.90;99.90
2497;DHT22;1259;48.306;14.374;2022-07-10T11:56:41;19.70;98.90
2497;DHT22;1259;48.306;14.374;2022-07-10T11:59:10;19.50;98.70
2497;DHT22;1259;48.306;14.374;2022-07-10T12:01:41;19.80;99.60
2497;DHT22;1259;48.306;14.374;2022-07-10T12:04:09;19.60;99.10
2497;DHT22;1259;48.306;14.374;2022-07-10T12:06:38;19.60;99.70
2497;DHT22;1259;48.306;14.374;2022-07-10T12:09:07;19.60;99.00
2497;DHT22;1259;48.306;14.374;2022-07-10T12:11:34;19.80;98.70
2497;DHT22;1259;48.306;14.374;2022-07-10T12:14:14;20.10;99.90
2497;DHT22;1259;48.306;14.374;2022-07-10T12:16:44;20.00;98.10
2497;DHT22;1259;48.306;14.374;2022-07-10T12:19:12;19.60;96.40
2497;DHT22;1259;48.306;14.374;2022-07-10T12:21:41;19.60;96.00
2497;DHT22;1259;48.306;14.374;2022-07-10T12:24:09;19.70;96.50
2497;DHT22;1259;48.306;14.374;2022-07-10T12:26:38;20.00;97.20
2497;DHT22;1259;48.306;14.374;2022-07-10T12:29:05;20.10;95.70
2497;DHT22;1259;48.306;14.374;2022-07-10T12:31:34;20.20;96.00
2497;DHT22;1259;48.306;14.374;2022-07-10T12:34:05;20.00;94.00
2497;DHT22;1259;48.306;14.374;2022-07-10T12:36:46;19.90;93.40
2497;DHT22;1259;48.306;14.374;2022-07-10T12:39:15;19.80;93.40
2497;DHT22;1259;48.306;14.374;2022-07-10T12:41:59;19.80;94.20
2497;DHT22;1259;48.306;14.374;2022-07-10T12:44:34;19.40;91.90
2497;DHT22;1259;48.306;14.374;2022-07-10T12:47:05;19.40;92.50
2497;DHT22;1259;48.306;14.374;2022-07-10T12:49:52;19.40;93.10
2497;DHT22;1259;48.306;14.374;2022-07-10T12:52:21;19.50;93.20
2497;DHT22;1259;48.306;14.374;2022-07-10T12:54:48;19.60;92.40
2497;DHT22;1259;48.306;14.374;2022-07-10T12:57:15;19.70;93.70
2497;DHT22;1259;48.306;14.374;2022-07-10T12:59:42;19.70;92.50
2497;DHT22;1259;48.306;14.374;2022-07-10T13:02:17;19.50;91.50
2497;DHT22;1259;48.306;14.374;2022-07-10T13:04:54;19.70;92.00
2497;DHT22;1259;48.306;14.374;2022-07-10T13:07:29;19.70;91.20
2497;DHT22;1259;48.306;14.374;2022-07-10T13:09:58;19.60;91.20
2497;DHT22;1259;48.306;14.374;2022-07-10T13:12:26;19.40;91.50
2497;DHT22;1259;48.306;14.374;2022-07-10T13:14:53;19.20;91.00
2497;DHT22;1259;48.306;14.374;2022-07-10T13:17:21;19.10;91.70
2497;DHT22;1259;48.306;14.374;2022-07-10T13:19:49;19.30;93.20
2497;DHT22;1259;48.306;14.374;2022-07-10T13:22:17;19.50;91.50
2497;DHT22;1259;48.306;14.374;2022-07-10T13:24:44;19.50;91.20
2497;DHT22;1259;48.306;14.374;2022-07-10T13:27:11;19.30;90.60
2497;DHT22;1259;48.306;14.374;2022-07-10T13:29:38;19.30;91.70
2497;DHT22;1259;48.306;14.374;2022-07-10T13:32:05;19.40;92.70
2497;DHT22;1259;48.306;14.374;2022-07-10T13:34:34;19.40;92.00
2497;DHT22;1259;48.306;14.374;2022-07-10T13:37:02;19.30;90.30
2497;DHT22;1259;48.306;14.374;2022-07-10T13:39:29;19.40;89.80
2497;DHT22;1259;48.306;14.374;2022-07-10T13:41:56;19.20;89.70
2497;DHT22;1259;48.306;14.374;2022-07-10T13:44:23;19.10;88.50
2497;DHT22;1259;48.306;14.374;2022-07-10T13:46:51;19.30;90.00
2497;DHT22;1259;48.306;14.374;2022-07-10T13:49:18;19.50;92.30
2497;DHT22;1259;48.306;14.374;2022-07-10T13:51:46;19.50;91.80
2497;DHT22;1259;48.306;14.374;2022-07-10T13:54:13;19.50;90.00
2497;DHT22;1259;48.306;14.374;2022-07-10T13:56:40;19.20;87.80
2497;DHT22;1259;48.306;14.374;2022-07-10T13:59:09;19.30;89.40
2497;DHT22;1259;48.306;14.374;2022-07-10T14:01:36;19.40;88.40
2497;DHT22;1259;48.306;14.374;2022-07-10T14:04:03;19.30;87.80
2497;DHT22;1259;48.306;14.374;2022-07-10T14:06:30;19.20;87.90
2497;DHT22;1259;48.306;14.374;2022-07-10T14:08:58;19.20;87.80
2497;DHT22;1259;48.306;14.374;2022-07-10T14:11:25;19.30;87.40
2497;DHT22;1259;48.306;14.374;2022-07-10T14:13:53;19.40;85.50
2497;DHT22;1259;48.306;14.374;2022-07-10T14:16:20;19.40;84.90
2497;DHT22;1259;48.306;14.374;2022-07-10T14:18:46;19.30;84.50
2497;DHT22;1259;48.306;14.374;2022-07-10T14:21:15;19.40;84.60
2497;DHT22;1259;48.306;14.374;2022-07-10T14:23:42;19.40;84.60
2497;DHT22;1259;48.306;14.374;2022-07-10T14:26:11;19.50;85.20
2497;DHT22;1259;48.306;14.374;2022-07-10T14:28:38;19.50;87.10
2497;DHT22;1259;48.306;14.374;2022-07-10T14:31:06;19.70;88.20
2497;DHT22;1259;48.306;14.374;2022-07-10T14:33:34;19.60;85.60
2497;DHT22;1259;48.306;14.374;2022-07-10T14:36:03;19.60;83.60
2497;DHT22;1259;48.306;14.374;2022-07-10T14:38:30;19.50;83.30
2497;DHT22;1259;48.306;14.374;2022-07-10T14:40:57;19.40;81.10
2497;DHT22;1259;48.306;14.374;2022-07-10T14:43:25;19.30;82.50
2497;DHT22;1259;48.306;14.374;2022-07-10T14:45:54;19.40;84.00
2497;DHT22;1259;48.306;14.374;2022-07-10T14:48:21;19.20;83.20
2497;DHT22;1259;48.306;14.374;2022-07-10T14:50:48;19.00;82.50
2497;DHT22;1259;48.306;14.374;2022-07-10T14:53:15;18.90;83.40
2497;DHT22;1259;48.306;14.374;2022-07-10T14:55:42;18.80;83.40
2497;DHT22;1259;48.306;14.374;2022-07-10T14:58:08;18.90;86.50
2497;DHT22;1259;48.306;14.374;2022-07-10T15:00:37;19.10;85.30
2497;DHT22;1259;48.306;14.374;2022-07-10T15:03:04;19.10;86.70
2497;DHT22;1259;48.306;14.374;2022-07-10T15:05:31;19.30;87.70
2497;DHT22;1259;48.306;14.374;2022-07-10T15:07:59;19.40;84.90
2497;DHT22;1259;48.306;14.374;2022-07-10T15:10:26;19.30;85.20
2497;DHT22;1259;48.306;14.374;2022-07-10T15:12:53;19.30;84.90
2497;DHT22;1259;48.306;14.374;2022-07-10T15:15:20;19.20;85.90
2497;DHT22;1259;48.306;14.374;2022-07-10T15:17:49;19.30;87.70
2497;DHT22;1259;48.306;14.374;2022-07-10T15:20:16;19.30;87.00
2497;DHT22;1259;48.306;14.374;2022-07-10T15:22:44;19.20;85.50
2497;DHT22;1259;48.306;14.374;2022-07-10T15:25:11;19.30;86.10
2497;DHT22;1259;48.306;14.374;2022-07-10T15:27:38;19.50;86.00
2497;DHT22;1259;48.306;14.374;2022-07-10T15:30:08;19.50;85.40
2497;DHT22;1259;48.306;14.374;2022-07-10T15:32:36;19.50;84.70
2497;DHT22;1259;48.306;14.374;2022-07-10T15:35:06;19.60;85.50
2497;DHT22;1259;48.306;14.374;2022-07-10T15:37:34;19.60;83.50
2497;DHT22;1259;48.306;14.374;2022-07-10T15:40:01;19.60;83.00
2497;DHT22;1259;48.306;14.374;2022-07-10T15:42:28;19.40;84.10
2497;DHT22;1259;48.306;14.374;2022-07-10T15:44:55;19.40;83.90
2497;DHT22;1259;48.306;14.374;2022-07-10T15:47:22;19.50;83.00
2497;DHT22;1259;48.306;14.374;2022-07-10T15:49:49;19.50;84.60
2497;DHT22;1259;48.306;14.374;2022-07-10T15:52:17;19.60;86.60
2497;DHT22;1259;48.306;14.374;2022-07-10T15:54:44;19.60;84.80
2497;DHT22;1259;48.306;14.374;2022-07-10T15:57:12;19.50;84.10
2497;DHT22;1259;48.306;14.374;2022-07-10T15:59:39;19.40;83.70
2497;DHT22;1259;48.306;14.374;2022-07-10T16:02:07;19.30;84.00